WJA829 CYQT-KIWA
Flight info
| Callsign | WJA829 |
|---|---|
| Flight time | N/A |
| Altitude | 36000 |
| Route | AGLIN Q924 DLH J21 GEP J114 ONL/N0455F380 J114 DVV J60 DBL/N0448F370 J206 HBU/N0450F380 J10 RSK J161 ZUN HUUTY1 |
| Aircraft | B738/M-SDE2E3FGHIRWXY/LB1 |
Departure
| Time | 2026-04-19 22:15 |
|---|---|
| Airport | Thunder Bay International Airport (CYQT) |
Arrival
| Time | N/A |
|---|---|
| Airport | Mesa Gateway Airport (KIWA) |
| Time | Latitude | Longitude | Altitude | Speed | Heading |
|---|---|---|---|---|---|
| 2026-04-19 21:45 | 48.37210 | -89.31303 | 652 ft | 0 kts | 116° |
| 2026-04-19 22:05 | 48.37212 | -89.31310 | 652 ft | 4 kts | 117° |
| 2026-04-19 22:05 | 48.37227 | -89.31344 | 656 ft | 4 kts | 124° |
| 2026-04-19 22:05 | 48.37239 | -89.31376 | 655 ft | 4 kts | 103° |
| 2026-04-19 22:06 | 48.37236 | -89.31411 | 657 ft | 4 kts | 53° |
| 2026-04-19 22:06 | 48.37224 | -89.31430 | 656 ft | 1 kts | 38° |
| 2026-04-19 22:06 | 48.37222 | -89.31433 | 655 ft | 3 kts | 38° |
| 2026-04-19 22:08 | 48.37221 | -89.31433 | 652 ft | 0 kts | 38° |
| 2026-04-19 22:10 | 48.37222 | -89.31433 | 652 ft | 1 kts | 38° |
| 2026-04-19 22:11 | 48.37247 | -89.31403 | 655 ft | 8 kts | 38° |
| 2026-04-19 22:11 | 48.37290 | -89.31352 | 652 ft | 8 kts | 38° |
| 2026-04-19 22:11 | 48.37333 | -89.31303 | 651 ft | 8 kts | 37° |
| 2026-04-19 22:11 | 48.37379 | -89.31248 | 651 ft | 9 kts | 38° |
| 2026-04-19 22:12 | 48.37433 | -89.31198 | 651 ft | 9 kts | 11° |
| 2026-04-19 22:12 | 48.37502 | -89.31194 | 652 ft | 10 kts | 5° |
| 2026-04-19 22:12 | 48.37547 | -89.31122 | 654 ft | 10 kts | 70° |
| 2026-04-19 22:12 | 48.37571 | -89.31022 | 652 ft | 10 kts | 70° |
| 2026-04-19 22:13 | 48.37594 | -89.30926 | 654 ft | 10 kts | 70° |
| 2026-04-19 22:13 | 48.37620 | -89.30812 | 652 ft | 14 kts | 71° |
| 2026-04-19 22:13 | 48.37659 | -89.30670 | 649 ft | 12 kts | 56° |
| 2026-04-19 22:13 | 48.37692 | -89.30598 | 651 ft | 8 kts | 69° |
| 2026-04-19 22:14 | 48.37681 | -89.30566 | 648 ft | 3 kts | 154° |
| 2026-04-19 22:14 | 48.37666 | -89.30576 | 649 ft | 3 kts | 232° |
| 2026-04-19 22:14 | 48.37658 | -89.30616 | 651 ft | 11 kts | 253° |
| 2026-04-19 22:14 | 48.37549 | -89.31101 | 654 ft | 89 kts | 251° |
| 2026-04-19 22:15 | 48.37251 | -89.32330 | 677 ft | 156 kts | 255° |
| 2026-04-19 22:15 | 48.36843 | -89.34008 | 1204 ft | 181 kts | 256° |
| 2026-04-19 22:15 | 48.36290 | -89.35754 | 2186 ft | 190 kts | 229° |
| 2026-04-19 22:15 | 48.35150 | -89.36752 | 3184 ft | 195 kts | 211° |
| 2026-04-19 22:16 | 48.33895 | -89.37663 | 3785 ft | 205 kts | 211° |
| 2026-04-19 22:16 | 48.32587 | -89.38601 | 4156 ft | 221 kts | 211° |
| 2026-04-19 22:16 | 48.31139 | -89.39638 | 4554 ft | 236 kts | 210° |
| 2026-04-19 22:16 | 48.29600 | -89.40731 | 4940 ft | 254 kts | 210° |
| 2026-04-19 22:17 | 48.27964 | -89.41893 | 5564 ft | 265 kts | 210° |
| 2026-04-19 22:17 | 48.26283 | -89.43085 | 6464 ft | 268 kts | 211° |
| 2026-04-19 22:17 | 48.24825 | -89.44756 | 7301 ft | 262 kts | 236° |
| 2026-04-19 22:17 | 48.23731 | -89.46910 | 8174 ft | 263 kts | 239° |
| 2026-04-19 22:18 | 48.22633 | -89.49134 | 9036 ft | 267 kts | 239° |
| 2026-04-19 22:18 | 48.21523 | -89.51385 | 9917 ft | 270 kts | 240° |
| 2026-04-19 22:18 | 48.20385 | -89.53690 | 10515 ft | 283 kts | 240° |
| 2026-04-19 22:18 | 48.19177 | -89.56141 | 10709 ft | 307 kts | 239° |
| 2026-04-19 22:19 | 48.17853 | -89.58814 | 10987 ft | 328 kts | 239° |
| 2026-04-19 22:19 | 48.16464 | -89.61589 | 11604 ft | 336 kts | 238° |
| 2026-04-19 22:19 | 48.15057 | -89.64387 | 12398 ft | 338 kts | 238° |
| 2026-04-19 22:19 | 48.13626 | -89.67224 | 13086 ft | 341 kts | 238° |
| 2026-04-19 22:20 | 48.12184 | -89.70085 | 13757 ft | 345 kts | 238° |
| 2026-04-19 22:20 | 48.10751 | -89.72925 | 14406 ft | 347 kts | 238° |
| 2026-04-19 22:20 | 48.09290 | -89.75822 | 14992 ft | 350 kts | 238° |
| 2026-04-19 22:20 | 48.07810 | -89.78752 | 15581 ft | 353 kts | 238° |
| 2026-04-19 22:21 | 48.06325 | -89.81693 | 16152 ft | 356 kts | 238° |
| 2026-04-19 22:21 | 48.04819 | -89.84670 | 16751 ft | 359 kts | 238° |
| 2026-04-19 22:21 | 48.03302 | -89.87669 | 17335 ft | 362 kts | 237° |
| 2026-04-19 22:21 | 48.01791 | -89.90650 | 17880 ft | 365 kts | 237° |
| 2026-04-19 22:22 | 48.00256 | -89.93675 | 18419 ft | 369 kts | 237° |
| 2026-04-19 22:22 | 47.98691 | -89.96758 | 18929 ft | 371 kts | 237° |
| 2026-04-19 22:22 | 47.97126 | -89.99837 | 19411 ft | 374 kts | 237° |
| 2026-04-19 22:22 | 47.95546 | -90.02939 | 19864 ft | 377 kts | 237° |
| 2026-04-19 22:23 | 47.93946 | -90.06078 | 20320 ft | 380 kts | 237° |
| 2026-04-19 22:23 | 47.92356 | -90.09192 | 20767 ft | 383 kts | 237° |
| 2026-04-19 22:23 | 47.90732 | -90.12370 | 21216 ft | 385 kts | 237° |
| 2026-04-19 22:23 | 47.89098 | -90.15564 | 21629 ft | 388 kts | 237° |
| 2026-04-19 22:24 | 47.88008 | -90.17694 | 21915 ft | 391 kts | 237° |
| 2026-04-19 22:24 | 47.86355 | -90.20918 | 22339 ft | 393 kts | 237° |
| 2026-04-19 22:24 | 47.84138 | -90.25241 | 22905 ft | 397 kts | 237° |
| 2026-04-19 22:24 | 47.82454 | -90.28519 | 23320 ft | 400 kts | 237° |
| 2026-04-19 22:25 | 47.81327 | -90.30710 | 23558 ft | 402 kts | 237° |
| 2026-04-19 22:25 | 47.79620 | -90.34024 | 23914 ft | 405 kts | 236° |
| 2026-04-19 22:25 | 47.77899 | -90.37358 | 24263 ft | 406 kts | 236° |
| 2026-04-19 22:25 | 47.76169 | -90.40703 | 24588 ft | 408 kts | 237° |
| 2026-04-19 22:26 | 47.74431 | -90.44060 | 24892 ft | 411 kts | 237° |
| 2026-04-19 22:26 | 47.72682 | -90.47435 | 25211 ft | 413 kts | 237° |
| 2026-04-19 22:26 | 47.70920 | -90.50829 | 25522 ft | 415 kts | 237° |
| 2026-04-19 22:26 | 47.69153 | -90.54233 | 25828 ft | 417 kts | 237° |
| 2026-04-19 22:27 | 47.67391 | -90.57621 | 26111 ft | 420 kts | 237° |
| 2026-04-19 22:27 | 47.65595 | -90.61071 | 26407 ft | 422 kts | 237° |
| 2026-04-19 22:27 | 47.63794 | -90.64526 | 26713 ft | 423 kts | 237° |
| 2026-04-19 22:27 | 47.61987 | -90.67990 | 26987 ft | 426 kts | 237° |
| 2026-04-19 22:28 | 47.60164 | -90.71478 | 27248 ft | 428 kts | 237° |
| 2026-04-19 22:28 | 47.58350 | -90.74946 | 27516 ft | 430 kts | 237° |
| 2026-04-19 22:28 | 47.56509 | -90.78461 | 27799 ft | 431 kts | 237° |
| 2026-04-19 22:28 | 47.54662 | -90.81982 | 28042 ft | 434 kts | 237° |
| 2026-04-19 22:29 | 47.52821 | -90.85489 | 28270 ft | 436 kts | 237° |
| 2026-04-19 22:29 | 47.50955 | -90.89049 | 28511 ft | 438 kts | 237° |
| 2026-04-19 22:29 | 47.49090 | -90.92626 | 28765 ft | 439 kts | 237° |
| 2026-04-19 22:29 | 47.47218 | -90.96217 | 28992 ft | 441 kts | 237° |
| 2026-04-19 22:30 | 47.45360 | -90.99781 | 29192 ft | 443 kts | 237° |
| 2026-04-19 22:30 | 47.43471 | -91.03396 | 29407 ft | 445 kts | 237° |
| 2026-04-19 22:30 | 47.41576 | -91.07016 | 29662 ft | 445 kts | 237° |
| 2026-04-19 22:30 | 47.39681 | -91.10630 | 29954 ft | 445 kts | 237° |
| 2026-04-19 22:31 | 47.37779 | -91.14253 | 30281 ft | 444 kts | 237° |
| 2026-04-19 22:31 | 47.35880 | -91.17863 | 30547 ft | 444 kts | 237° |
| 2026-04-19 22:31 | 47.33953 | -91.21433 | 30803 ft | 444 kts | 236° |
| 2026-04-19 22:31 | 47.31984 | -91.24940 | 31020 ft | 445 kts | 235° |
| 2026-04-19 22:32 | 47.30005 | -91.28441 | 31242 ft | 445 kts | 235° |
| 2026-04-19 22:32 | 47.28087 | -91.31937 | 31489 ft | 443 kts | 236° |
| 2026-04-19 22:32 | 47.26192 | -91.35512 | 31742 ft | 442 kts | 237° |
| 2026-04-19 22:32 | 47.24311 | -91.39089 | 31966 ft | 442 kts | 237° |
| 2026-04-19 22:33 | 47.22416 | -91.42682 | 32187 ft | 442 kts | 237° |
| 2026-04-19 22:33 | 47.20522 | -91.46243 | 32413 ft | 442 kts | 236° |
| 2026-04-19 22:33 | 47.18624 | -91.49791 | 32675 ft | 441 kts | 236° |
| 2026-04-19 22:33 | 47.16724 | -91.53329 | 32897 ft | 441 kts | 236° |
| 2026-04-19 22:34 | 47.14815 | -91.56871 | 33079 ft | 441 kts | 236° |
| 2026-04-19 22:34 | 47.12901 | -91.60412 | 33295 ft | 441 kts | 236° |
| 2026-04-19 22:34 | 47.11017 | -91.63892 | 33545 ft | 440 kts | 236° |
| 2026-04-19 22:34 | 47.09115 | -91.67404 | 33776 ft | 440 kts | 236° |
| 2026-04-19 22:35 | 47.07201 | -91.70936 | 33967 ft | 440 kts | 236° |
| 2026-04-19 22:35 | 47.05299 | -91.74444 | 34164 ft | 440 kts | 236° |
| 2026-04-19 22:35 | 47.03388 | -91.77961 | 34386 ft | 439 kts | 236° |
| 2026-04-19 22:35 | 47.01502 | -91.81430 | 34560 ft | 439 kts | 236° |
| 2026-04-19 22:36 | 46.99599 | -91.84928 | 34710 ft | 439 kts | 236° |
| 2026-04-19 22:36 | 46.97688 | -91.88434 | 34877 ft | 439 kts | 236° |
| 2026-04-19 22:36 | 46.95784 | -91.91925 | 35079 ft | 438 kts | 236° |
| 2026-04-19 22:36 | 46.93876 | -91.95417 | 35272 ft | 438 kts | 236° |
| 2026-04-19 22:37 | 46.91999 | -91.98846 | 35416 ft | 438 kts | 236° |
| 2026-04-19 22:37 | 46.90083 | -92.02341 | 35538 ft | 438 kts | 235° |
| 2026-04-19 22:37 | 46.88176 | -92.05813 | 35716 ft | 438 kts | 235° |
| 2026-04-19 22:37 | 46.86266 | -92.09288 | 35894 ft | 437 kts | 236° |
| 2026-04-19 22:38 | 46.84357 | -92.12758 | 36028 ft | 437 kts | 235° |
| 2026-04-19 22:38 | 46.82458 | -92.16180 | 36154 ft | 439 kts | 233° |
| 2026-04-19 22:38 | 46.80278 | -92.19333 | 36253 ft | 445 kts | 225° |
| 2026-04-19 22:38 | 46.77799 | -92.22050 | 36400 ft | 449 kts | 217° |
| 2026-04-19 22:39 | 46.75038 | -92.24263 | 36552 ft | 453 kts | 212° |
| 2026-04-19 22:39 | 46.72200 | -92.26314 | 36723 ft | 453 kts | 211° |
| 2026-04-19 22:39 | 46.69354 | -92.28328 | 36883 ft | 453 kts | 211° |
| 2026-04-19 22:39 | 46.66540 | -92.30317 | 37006 ft | 453 kts | 211° |
| 2026-04-19 22:40 | 46.63714 | -92.32327 | 37103 ft | 453 kts | 211° |
| 2026-04-19 22:40 | 46.60876 | -92.34360 | 37245 ft | 452 kts | 211° |
| 2026-04-19 22:40 | 46.58059 | -92.36387 | 37419 ft | 451 kts | 211° |
| 2026-04-19 22:40 | 46.55257 | -92.38410 | 37539 ft | 451 kts | 212° |
| 2026-04-19 22:41 | 46.52429 | -92.40454 | 37630 ft | 451 kts | 212° |
| 2026-04-19 22:41 | 46.49655 | -92.42458 | 37734 ft | 451 kts | 211° |
| 2026-04-19 22:41 | 46.46838 | -92.44491 | 37915 ft | 450 kts | 211° |
| 2026-04-19 22:41 | 46.44021 | -92.46521 | 38058 ft | 449 kts | 211° |
| 2026-04-19 22:42 | 46.41224 | -92.48534 | 38138 ft | 449 kts | 211° |
| 2026-04-19 22:42 | 46.38463 | -92.50518 | 38252 ft | 447 kts | 211° |
| 2026-04-19 22:42 | 46.35683 | -92.52515 | 38273 ft | 449 kts | 211° |
| 2026-04-19 22:43 | 46.30050 | -92.56554 | 38285 ft | 451 kts | 211° |
| 2026-04-19 22:43 | 46.24403 | -92.60592 | 38289 ft | 453 kts | 211° |
| 2026-04-19 22:44 | 46.18763 | -92.64615 | 38284 ft | 454 kts | 211° |
| 2026-04-19 22:44 | 46.13083 | -92.68656 | 38284 ft | 454 kts | 211° |
| 2026-04-19 22:45 | 46.07444 | -92.72659 | 38283 ft | 453 kts | 211° |
| 2026-04-19 22:45 | 46.01779 | -92.76671 | 38287 ft | 451 kts | 211° |
| 2026-04-19 22:46 | 45.96177 | -92.80629 | 38281 ft | 449 kts | 211° |
| 2026-04-19 22:46 | 45.90604 | -92.84559 | 38283 ft | 447 kts | 211° |
| 2026-04-19 22:47 | 45.85017 | -92.88490 | 38284 ft | 445 kts | 211° |
| 2026-04-19 22:47 | 45.79475 | -92.92381 | 38289 ft | 443 kts | 211° |
| 2026-04-19 22:48 | 45.73925 | -92.96269 | 38288 ft | 441 kts | 211° |
| 2026-04-19 22:48 | 45.68452 | -93.00094 | 38295 ft | 440 kts | 211° |
| 2026-04-19 22:49 | 45.62938 | -93.03941 | 38290 ft | 440 kts | 211° |
| 2026-04-19 22:49 | 45.57425 | -93.07778 | 38288 ft | 440 kts | 211° |
| 2026-04-19 22:50 | 45.51946 | -93.11583 | 38286 ft | 440 kts | 211° |
| 2026-04-19 22:50 | 45.46419 | -93.15412 | 38286 ft | 441 kts | 211° |
| 2026-04-19 22:51 | 45.40911 | -93.19220 | 38286 ft | 442 kts | 211° |
| 2026-04-19 22:51 | 45.32585 | -93.24961 | 38283 ft | 443 kts | 211° |
| 2026-04-19 22:52 | 45.27042 | -93.28773 | 38283 ft | 443 kts | 211° |
| 2026-04-19 22:52 | 45.21476 | -93.32593 | 38274 ft | 443 kts | 211° |
| 2026-04-19 22:53 | 45.16202 | -93.36887 | 38281 ft | 434 kts | 224° |
| 2026-04-19 22:53 | 45.12134 | -93.43051 | 38263 ft | 424 kts | 240° |
| 2026-04-19 22:54 | 45.09131 | -93.50228 | 38277 ft | 422 kts | 243° |
| 2026-04-19 22:54 | 45.06205 | -93.57401 | 38280 ft | 422 kts | 243° |
| 2026-04-19 22:55 | 45.03261 | -93.64537 | 38296 ft | 422 kts | 242° |
| 2026-04-19 22:55 | 45.00274 | -93.71707 | 38295 ft | 422 kts | 242° |
| 2026-04-19 22:56 | 44.97279 | -93.78854 | 38296 ft | 422 kts | 242° |
| 2026-04-19 22:56 | 44.95798 | -93.82375 | 38031 ft | 422 kts | 245° |
| 2026-04-19 22:56 | 44.94291 | -93.85942 | 38146 ft | 422 kts | 248° |
| 2026-04-19 22:57 | 44.92794 | -93.89517 | 38476 ft | 423 kts | 241° |
| 2026-04-19 22:57 | 44.91292 | -93.93105 | 38401 ft | 425 kts | 242° |
| 2026-04-19 22:57 | 44.88282 | -94.00230 | 38302 ft | 425 kts | 242° |
| 2026-04-19 22:58 | 44.85250 | -94.07378 | 38292 ft | 422 kts | 242° |
| 2026-04-19 22:58 | 44.82238 | -94.14467 | 38287 ft | 420 kts | 242° |
| 2026-04-19 22:59 | 44.79234 | -94.21527 | 38295 ft | 418 kts | 242° |
| 2026-04-19 22:59 | 44.76260 | -94.28500 | 38310 ft | 417 kts | 242° |
| 2026-04-19 23:00 | 44.73264 | -94.35507 | 38317 ft | 417 kts | 241° |
| 2026-04-19 23:00 | 44.70264 | -94.42507 | 38315 ft | 417 kts | 241° |
| 2026-04-19 23:01 | 44.67260 | -94.49497 | 38295 ft | 418 kts | 241° |
| 2026-04-19 23:01 | 44.64255 | -94.56478 | 38321 ft | 421 kts | 241° |
| 2026-04-19 23:02 | 44.61194 | -94.63569 | 38319 ft | 425 kts | 241° |
| 2026-04-19 23:02 | 44.58135 | -94.70634 | 38322 ft | 428 kts | 241° |
| 2026-04-19 23:03 | 44.55038 | -94.77770 | 38313 ft | 430 kts | 241° |
| 2026-04-19 23:03 | 44.51912 | -94.84955 | 38317 ft | 430 kts | 241° |
| 2026-04-19 23:04 | 44.48784 | -94.92124 | 38304 ft | 430 kts | 241° |
| 2026-04-19 23:04 | 44.45673 | -94.99238 | 38301 ft | 429 kts | 241° |
| 2026-04-19 23:05 | 44.42554 | -95.06353 | 38305 ft | 427 kts | 241° |
| 2026-04-19 23:05 | 44.39463 | -95.13387 | 38313 ft | 426 kts | 241° |
| 2026-04-19 23:06 | 44.36364 | -95.20424 | 38312 ft | 424 kts | 241° |
| 2026-04-19 23:06 | 44.33265 | -95.27441 | 38318 ft | 423 kts | 241° |
| 2026-04-19 23:07 | 44.30175 | -95.34422 | 38305 ft | 422 kts | 242° |
| 2026-04-19 23:07 | 44.27099 | -95.41357 | 38305 ft | 421 kts | 242° |
| 2026-04-19 23:08 | 44.24005 | -95.48312 | 38302 ft | 421 kts | 242° |
| 2026-04-19 23:08 | 44.20908 | -95.55260 | 38303 ft | 422 kts | 242° |
| 2026-04-19 23:09 | 44.17818 | -95.62174 | 38297 ft | 423 kts | 242° |
| 2026-04-19 23:09 | 44.14710 | -95.69113 | 38310 ft | 424 kts | 242° |
| 2026-04-19 23:10 | 44.11573 | -95.76098 | 38301 ft | 425 kts | 242° |
| 2026-04-19 23:10 | 44.08959 | -95.81906 | 38306 ft | 426 kts | 242° |
| 2026-04-19 23:11 | 44.05282 | -95.90054 | 38299 ft | 427 kts | 242° |
| 2026-04-19 23:11 | 44.02646 | -95.95883 | 38308 ft | 428 kts | 242° |
| 2026-04-19 23:12 | 43.99471 | -96.02888 | 38302 ft | 428 kts | 242° |
| 2026-04-19 23:12 | 43.96302 | -96.09863 | 38301 ft | 428 kts | 242° |
| 2026-04-19 23:13 | 43.93107 | -96.16878 | 38281 ft | 429 kts | 242° |
| 2026-04-19 23:13 | 43.89937 | -96.23821 | 38293 ft | 428 kts | 242° |
| 2026-04-19 23:14 | 43.86742 | -96.30802 | 38278 ft | 428 kts | 242° |
| 2026-04-19 23:14 | 43.83547 | -96.37766 | 38297 ft | 427 kts | 242° |
| 2026-04-19 23:15 | 43.80372 | -96.44671 | 38292 ft | 427 kts | 242° |
| 2026-04-19 23:15 | 43.77175 | -96.51609 | 38298 ft | 426 kts | 242° |
| 2026-04-19 23:16 | 43.73996 | -96.58492 | 38287 ft | 426 kts | 242° |
| 2026-04-19 23:16 | 43.70801 | -96.65393 | 38287 ft | 425 kts | 242° |
| 2026-04-19 23:17 | 43.67628 | -96.72233 | 38279 ft | 425 kts | 242° |
| 2026-04-19 23:17 | 43.64375 | -96.79086 | 38278 ft | 427 kts | 237° |
| 2026-04-19 23:18 | 43.60632 | -96.85450 | 38269 ft | 430 kts | 235° |
| 2026-04-19 23:18 | 43.56771 | -96.91748 | 38283 ft | 430 kts | 235° |
| 2026-04-19 23:19 | 43.52906 | -96.98090 | 38282 ft | 430 kts | 235° |
| 2026-04-19 23:19 | 43.49072 | -97.04426 | 38292 ft | 430 kts | 235° |
| 2026-04-19 23:20 | 43.45264 | -97.10728 | 38290 ft | 431 kts | 235° |
| 2026-04-19 23:20 | 43.41424 | -97.17073 | 38306 ft | 431 kts | 235° |
| 2026-04-19 23:21 | 43.37575 | -97.23417 | 38301 ft | 431 kts | 236° |
| 2026-04-19 23:21 | 43.33747 | -97.29713 | 38314 ft | 431 kts | 235° |
| 2026-04-19 23:22 | 43.29883 | -97.36053 | 38303 ft | 431 kts | 236° |
| 2026-04-19 23:22 | 43.26056 | -97.42320 | 38311 ft | 431 kts | 236° |
| 2026-04-19 23:23 | 43.22198 | -97.48623 | 38299 ft | 431 kts | 236° |
| 2026-04-19 23:23 | 43.18326 | -97.54935 | 38304 ft | 431 kts | 236° |
| 2026-04-19 23:24 | 43.14473 | -97.61199 | 37967 ft | 430 kts | 238° |
| 2026-04-19 23:24 | 43.12553 | -97.64311 | 38153 ft | 427 kts | 238° |
| 2026-04-19 23:24 | 43.10630 | -97.67430 | 38219 ft | 427 kts | 238° |
| 2026-04-19 23:25 | 43.06797 | -97.73647 | 38301 ft | 428 kts | 238° |
| 2026-04-19 23:25 | 43.02952 | -97.79870 | 38313 ft | 431 kts | 238° |
| 2026-04-19 23:26 | 42.99058 | -97.86154 | 38312 ft | 434 kts | 238° |
| 2026-04-19 23:26 | 42.95160 | -97.92429 | 38308 ft | 437 kts | 238° |
| 2026-04-19 23:27 | 42.91204 | -97.98782 | 38299 ft | 440 kts | 238° |
| 2026-04-19 23:27 | 42.87242 | -98.05128 | 38294 ft | 441 kts | 238° |
| 2026-04-19 23:28 | 42.83251 | -98.11507 | 38285 ft | 441 kts | 238° |
| 2026-04-19 23:28 | 42.79265 | -98.17865 | 38284 ft | 440 kts | 238° |
| 2026-04-19 23:29 | 42.75314 | -98.24153 | 38285 ft | 438 kts | 238° |
| 2026-04-19 23:29 | 42.71344 | -98.30461 | 38284 ft | 436 kts | 238° |
| 2026-04-19 23:30 | 42.67392 | -98.36726 | 38279 ft | 435 kts | 238° |
| 2026-04-19 23:30 | 42.63479 | -98.42917 | 38273 ft | 433 kts | 238° |
| 2026-04-19 23:31 | 42.59545 | -98.49130 | 38263 ft | 432 kts | 238° |
| 2026-04-19 23:31 | 42.55644 | -98.55276 | 38269 ft | 431 kts | 238° |
| 2026-04-19 23:32 | 42.51725 | -98.61442 | 38258 ft | 432 kts | 238° |
| 2026-04-19 23:32 | 42.47790 | -98.67623 | 38268 ft | 431 kts | 239° |
| 2026-04-19 23:33 | 42.44529 | -98.74214 | 38265 ft | 421 kts | 248° |
| 2026-04-19 23:33 | 42.41524 | -98.81059 | 38263 ft | 423 kts | 248° |
| 2026-04-19 23:34 | 42.38504 | -98.87872 | 38263 ft | 424 kts | 247° |
| 2026-04-19 23:34 | 42.35433 | -98.94717 | 38259 ft | 426 kts | 247° |
| 2026-04-19 23:35 | 42.32338 | -99.01578 | 38259 ft | 428 kts | 247° |
| 2026-04-19 23:35 | 42.29228 | -99.08459 | 38257 ft | 429 kts | 247° |
| 2026-04-19 23:36 | 42.26132 | -99.15299 | 38252 ft | 430 kts | 247° |
| 2026-04-19 23:36 | 42.22999 | -99.22200 | 38241 ft | 430 kts | 247° |
| 2026-04-19 23:37 | 42.19875 | -99.29086 | 38239 ft | 430 kts | 247° |
| 2026-04-19 23:37 | 42.16771 | -99.35923 | 38235 ft | 429 kts | 246° |
| 2026-04-19 23:38 | 42.13650 | -99.42782 | 38224 ft | 428 kts | 246° |
| 2026-04-19 23:38 | 42.10531 | -99.49621 | 38219 ft | 426 kts | 246° |
| 2026-04-19 23:39 | 42.07444 | -99.56373 | 38214 ft | 425 kts | 246° |
| 2026-04-19 23:39 | 42.04345 | -99.63137 | 38211 ft | 423 kts | 246° |
| 2026-04-19 23:40 | 42.01246 | -99.69888 | 38206 ft | 422 kts | 246° |
| 2026-04-19 23:40 | 41.98177 | -99.76556 | 38209 ft | 421 kts | 246° |
| 2026-04-19 23:41 | 41.95091 | -99.83249 | 38205 ft | 420 kts | 246° |
| 2026-04-19 23:41 | 41.92023 | -99.89887 | 38201 ft | 419 kts | 246° |
| 2026-04-19 23:42 | 41.88937 | -99.96551 | 38201 ft | 419 kts | 246° |
| 2026-04-19 23:42 | 41.85865 | -100.03167 | 38199 ft | 419 kts | 246° |
| 2026-04-19 23:43 | 41.82772 | -100.09816 | 38193 ft | 419 kts | 246° |
| 2026-04-19 23:43 | 41.79702 | -100.16399 | 38195 ft | 418 kts | 246° |
| 2026-04-19 23:44 | 41.76611 | -100.23015 | 38186 ft | 419 kts | 246° |
| 2026-04-19 23:44 | 41.73523 | -100.29608 | 38175 ft | 419 kts | 246° |
| 2026-04-19 23:45 | 41.70414 | -100.36231 | 38181 ft | 419 kts | 246° |
| 2026-04-19 23:45 | 41.67325 | -100.42799 | 38177 ft | 419 kts | 245° |
| 2026-04-19 23:46 | 41.64216 | -100.49396 | 38183 ft | 419 kts | 245° |